createdAt,value
2023-01-23T00:00:18.114Z,25.75
2023-01-23T00:01:26.469Z,25.40
2023-01-23T00:02:28.842Z,22.02
2023-01-23T00:03:31.631Z,22.38
2023-01-23T00:04:33.960Z,23.27
2023-01-23T00:05:36.241Z,23.38
2023-01-23T00:06:38.624Z,27.05
2023-01-23T00:07:40.919Z,22.88
2023-01-23T00:08:44.738Z,20.00
2023-01-23T00:09:47.128Z,21.17
2023-01-23T00:10:49.528Z,23.23
2023-01-23T00:11:51.845Z,26.67
2023-01-23T00:12:54.505Z,23.80
2023-01-23T00:13:58.143Z,27.40
2023-01-23T00:15:00.467Z,23.50
2023-01-23T00:16:16.375Z,22.67
2023-01-23T00:17:18.588Z,22.92
2023-01-23T00:18:20.852Z,23.85
2023-01-23T00:19:23.131Z,27.20
2023-01-23T00:20:25.446Z,20.88
2023-01-23T00:21:29.432Z,19.50
2023-01-23T00:22:31.689Z,24.08
2023-01-23T00:23:34.333Z,19.70
2023-01-23T00:24:36.650Z,28.00
2023-01-23T00:25:39.160Z,22.48
2023-01-23T00:26:41.473Z,19.50
2023-01-23T00:27:43.780Z,24.70
2023-01-23T00:28:47.359Z,21.50
2023-01-23T00:29:53.247Z,21.05
2023-01-23T00:31:13.089Z,21.38
2023-01-23T00:32:15.415Z,22.73
2023-01-23T00:33:17.723Z,24.50
2023-01-23T00:34:20.004Z,24.38
2023-01-23T00:35:23.861Z,24.65
2023-01-23T00:36:30.456Z,22.25
2023-01-23T00:37:32.819Z,24.90
2023-01-23T00:38:35.519Z,21.33
2023-01-23T00:39:37.778Z,20.35
2023-01-23T00:40:40.076Z,23.05
2023-01-23T00:41:42.468Z,24.85
2023-01-23T00:42:44.735Z,23.77
2023-01-23T00:43:48.331Z,25.08
2023-01-23T00:44:52.424Z,23.80
2023-01-23T00:45:54.936Z,26.50
2023-01-23T00:46:58.187Z,22.25
2023-01-23T00:48:00.424Z,23.88
2023-01-23T00:49:02.796Z,24.48
2023-01-23T00:50:05.408Z,22.83
2023-01-23T00:51:08.177Z,23.17
2023-01-23T00:52:10.448Z,26.48
2023-01-23T00:53:13.244Z,25.55
2023-01-23T00:54:15.711Z,24.08
2023-01-23T00:55:18.024Z,24.75
2023-01-23T00:56:20.300Z,27.80
2023-01-23T00:57:22.710Z,21.60
2023-01-23T00:58:25.167Z,22.10
2023-01-23T00:59:27.676Z,18.98
2023-01-23T01:00:30.056Z,23.05
2023-01-23T01:01:32.821Z,24.30
2023-01-23T01:02:35.345Z,23.85
2023-01-23T01:03:37.733Z,25.08
2023-01-23T01:04:39.988Z,21.52
2023-01-23T01:05:42.296Z,21.08
2023-01-23T01:06:44.713Z,27.92
2023-01-23T01:07:47.680Z,26.25
2023-01-23T01:08:50.489Z,26.70
2023-01-23T01:09:52.814Z,23.05
2023-01-23T01:10:55.101Z,26.95
2023-01-23T01:11:57.389Z,24.95
2023-01-23T01:13:01.791Z,25.52
2023-01-23T01:14:04.430Z,22.58
2023-01-23T01:15:08.596Z,23.77
2023-01-23T01:16:11.533Z,23.25
2023-01-23T01:17:13.875Z,21.92
2023-01-23T01:18:17.396Z,25.23
2023-01-23T01:19:20.058Z,25.33
2023-01-23T01:20:25.972Z,24.05
2023-01-23T01:21:28.364Z,24.17
2023-01-23T01:22:30.594Z,24.48
2023-01-23T01:23:32.900Z,19.52
2023-01-23T01:24:35.274Z,25.83
2023-01-23T01:25:38.693Z,27.45
2023-01-23T01:26:41.000Z,24.90
2023-01-23T01:27:43.323Z,23.85
2023-01-23T01:28:45.690Z,21.80
2023-01-23T01:29:49.779Z,26.65
2023-01-23T01:30:52.082Z,25.88
2023-01-23T01:31:54.551Z,26.80
2023-01-23T01:32:57.157Z,26.77
2023-01-23T01:33:59.454Z,26.40
2023-01-23T01:35:03.256Z,26.58
2023-01-23T01:36:10.213Z,23.45
2023-01-23T01:37:12.486Z,22.75
2023-01-23T01:38:14.765Z,24.20
2023-01-23T01:39:17.229Z,24.00
2023-01-23T01:40:28.923Z,24.75
2023-01-23T01:41:32.147Z,25.00
2023-01-23T01:42:43.706Z,28.08
2023-01-23T01:43:46.295Z,23.42
2023-01-23T01:45:01.081Z,24.77
2023-01-23T01:46:26.109Z,25.13
2023-01-23T01:47:29.104Z,27.80
2023-01-23T01:48:59.589Z,30.55
2023-01-23T01:50:06.197Z,23.67
2023-01-23T01:51:24.689Z,24.80
2023-01-23T01:52:27.629Z,26.05
2023-01-23T01:53:32.068Z,25.80
2023-01-23T01:54:47.141Z,26.38
2023-01-23T01:55:49.897Z,27.85
2023-01-23T01:57:13.925Z,26.25
2023-01-23T01:58:18.052Z,27.65
2023-01-23T01:59:23.551Z,24.02
2023-01-23T02:00:26.106Z,22.92
2023-01-23T02:01:28.629Z,26.55
2023-01-23T02:02:41.403Z,25.63
2023-01-23T02:03:45.029Z,26.33
2023-01-23T02:04:54.830Z,24.02
2023-01-23T02:05:57.281Z,25.67
2023-01-23T02:07:03.114Z,30.98
2023-01-23T02:08:23.067Z,26.33
2023-01-23T02:09:27.219Z,30.13
2023-01-23T02:10:29.797Z,24.38
2023-01-23T02:11:32.148Z,28.75
2023-01-23T02:12:35.353Z,22.90
2023-01-23T02:13:39.963Z,27.45
2023-01-23T02:14:42.958Z,24.25
2023-01-23T02:15:46.257Z,27.23
2023-01-23T02:16:51.133Z,25.63
2023-01-23T02:17:54.984Z,25.95
2023-01-23T02:19:04.302Z,27.05
2023-01-23T02:20:15.750Z,28.45
2023-01-23T02:21:25.023Z,25.98
2023-01-23T02:22:34.191Z,24.58
2023-01-23T02:23:46.366Z,26.23
2023-01-23T02:25:11.335Z,27.63
2023-01-23T02:26:18.079Z,29.27
2023-01-23T02:27:20.389Z,32.10
2023-01-23T02:28:23.117Z,29.77
2023-01-23T02:29:26.502Z,28.63
2023-01-23T02:30:31.036Z,28.05
2023-01-23T02:31:35.272Z,28.65
2023-01-23T02:32:37.618Z,24.92
2023-01-23T02:33:39.970Z,27.27
2023-01-23T02:34:43.140Z,31.45
2023-01-23T02:35:45.545Z,29.65
2023-01-23T02:36:48.969Z,32.47
2023-01-23T02:37:54.839Z,29.90
2023-01-23T02:39:15.920Z,30.77
2023-01-23T02:40:19.053Z,28.38
2023-01-23T02:41:29.373Z,29.05
2023-01-23T02:42:32.827Z,30.67
2023-01-23T02:43:37.490Z,30.08
2023-01-23T02:44:41.821Z,30.83
2023-01-23T02:45:44.827Z,29.02
2023-01-23T02:46:49.512Z,28.58
2023-01-23T02:47:52.042Z,28.38
2023-01-23T02:48:54.440Z,31.17
2023-01-23T02:49:56.795Z,28.23
2023-01-23T02:50:59.419Z,28.77
2023-01-23T02:52:01.931Z,27.38
2023-01-23T02:53:05.268Z,31.95
2023-01-23T02:54:07.750Z,28.40
2023-01-23T02:55:10.257Z,30.20
2023-01-23T02:56:12.575Z,31.73
2023-01-23T02:57:15.020Z,28.60
2023-01-23T02:58:35.926Z,31.15
2023-01-23T02:59:57.030Z,31.33
2023-01-23T03:01:00.461Z,24.75
2023-01-23T03:02:05.543Z,27.77
2023-01-23T03:03:08.696Z,29.85
2023-01-23T03:04:11.022Z,27.50
2023-01-23T03:05:13.680Z,30.60
2023-01-23T03:06:15.956Z,30.25
2023-01-23T03:07:18.393Z,29.02
2023-01-23T03:08:20.691Z,34.38
2023-01-23T03:09:23.257Z,31.75
2023-01-23T03:10:25.492Z,29.75
2023-01-23T03:11:27.828Z,32.72
2023-01-23T03:12:31.546Z,31.13
2023-01-23T03:13:33.929Z,28.42
2023-01-23T03:14:36.337Z,31.42
2023-01-23T03:15:39.221Z,32.75
2023-01-23T03:16:42.951Z,31.77
2023-01-23T03:17:45.474Z,33.00
2023-01-23T03:18:54.617Z,30.13
2023-01-23T03:19:58.395Z,30.27
2023-01-23T03:21:03.518Z,30.98
2023-01-23T03:22:05.897Z,32.78
2023-01-23T03:23:08.653Z,30.45
2023-01-23T03:24:13.318Z,27.02
2023-01-23T03:25:16.073Z,33.13
2023-01-23T03:26:18.580Z,35.80
2023-01-23T03:27:22.410Z,32.85
2023-01-23T03:28:48.271Z,30.93
2023-01-23T03:30:09.859Z,36.88
2023-01-23T03:31:13.379Z,35.78
2023-01-23T03:32:16.554Z,33.13
2023-01-23T03:33:20.048Z,33.08
2023-01-23T03:34:22.909Z,34.55
2023-01-23T03:35:25.393Z,30.40
2023-01-23T03:36:30.195Z,31.42
2023-01-23T03:37:33.333Z,31.77
2023-01-23T03:38:37.566Z,35.28
2023-01-23T03:40:00.525Z,40.70
2023-01-23T03:41:21.890Z,40.25
2023-01-23T03:42:24.287Z,32.08
2023-01-23T03:43:32.483Z,34.58
2023-01-23T03:44:34.894Z,37.50
2023-01-23T03:45:37.887Z,37.95
2023-01-23T03:46:40.210Z,31.75
2023-01-23T03:47:42.543Z,34.53
2023-01-23T03:48:44.944Z,33.92
2023-01-23T03:49:47.367Z,39.92
2023-01-23T03:50:49.747Z,35.83
2023-01-23T03:51:54.006Z,34.28
2023-01-23T03:52:56.563Z,34.75
2023-01-23T03:53:58.823Z,34.35
2023-01-23T03:55:01.269Z,33.08
2023-01-23T03:56:03.823Z,30.52
2023-01-23T03:57:06.144Z,33.72
2023-01-23T03:58:23.315Z,33.05
2023-01-23T03:59:25.704Z,32.42
2023-01-23T04:00:28.283Z,30.65
2023-01-23T04:01:35.357Z,31.20
2023-01-23T04:02:38.560Z,31.23
2023-01-23T04:03:40.853Z,37.47
2023-01-23T04:04:43.469Z,30.58
2023-01-23T04:05:45.803Z,29.92
2023-01-23T04:06:48.079Z,32.42
2023-01-23T04:07:51.463Z,38.10
2023-01-23T04:08:54.056Z,34.17
2023-01-23T04:09:56.460Z,35.03
2023-01-23T04:11:06.914Z,30.88
2023-01-23T04:12:09.281Z,25.98
2023-01-23T04:13:15.509Z,28.20
2023-01-23T04:14:17.824Z,37.10
2023-01-23T04:15:20.171Z,29.50
2023-01-23T04:16:23.055Z,42.00
2023-01-23T04:17:25.427Z,35.75
2023-01-23T04:18:28.591Z,36.13
2023-01-23T04:19:31.110Z,36.05
2023-01-23T04:20:33.385Z,34.63
2023-01-23T04:21:35.702Z,33.17
2023-01-23T04:22:38.218Z,34.65
2023-01-23T04:23:41.139Z,34.70
2023-01-23T04:24:43.483Z,28.33
2023-01-23T04:25:45.966Z,38.90
2023-01-23T04:26:49.519Z,37.20
2023-01-23T04:27:52.077Z,35.25
2023-01-23T04:28:55.533Z,39.25
2023-01-23T04:29:58.316Z,33.72
2023-01-23T04:31:01.646Z,34.05
2023-01-23T04:32:09.656Z,39.67
2023-01-23T04:33:16.464Z,29.98
2023-01-23T04:34:19.666Z,36.75
2023-01-23T04:35:23.628Z,39.75
2023-01-23T04:36:27.143Z,39.05
2023-01-23T04:37:29.679Z,44.80
2023-01-23T04:38:33.011Z,42.83
2023-01-23T04:39:48.767Z,36.13
2023-01-23T04:40:51.731Z,40.67
2023-01-23T04:41:54.096Z,38.63
2023-01-23T04:43:19.155Z,51.17
2023-01-23T04:44:26.993Z,43.35
2023-01-23T04:45:58.544Z,40.70
2023-01-23T04:47:21.136Z,41.30
2023-01-23T04:48:25.504Z,40.30
2023-01-23T04:49:28.638Z,39.13
2023-01-23T04:50:32.178Z,49.20
2023-01-23T04:51:34.585Z,45.05
2023-01-23T04:52:37.631Z,41.08
2023-01-23T04:53:40.367Z,48.42
2023-01-23T04:54:43.428Z,49.20
2023-01-23T04:55:49.155Z,51.53
2023-01-23T04:56:52.694Z,42.78
2023-01-23T04:57:56.154Z,42.97
2023-01-23T04:59:00.798Z,42.67
2023-01-23T05:00:03.854Z,43.97
2023-01-23T05:01:07.846Z,40.28
2023-01-23T05:02:11.672Z,42.30
2023-01-23T05:03:17.961Z,42.65
2023-01-23T05:04:22.441Z,41.60
2023-01-23T05:05:26.345Z,38.42
2023-01-23T05:06:32.621Z,40.20
2023-01-23T05:07:35.012Z,40.28
2023-01-23T05:08:47.393Z,40.97
2023-01-23T05:10:01.527Z,41.45
2023-01-23T05:11:03.981Z,41.97
2023-01-23T05:12:06.738Z,42.20
2023-01-23T05:13:12.689Z,39.65
2023-01-23T05:14:15.501Z,38.25
2023-01-23T05:15:18.392Z,35.85
2023-01-23T05:16:22.046Z,41.70
2023-01-23T05:17:44.359Z,32.45
2023-01-23T05:18:47.030Z,40.67
2023-01-23T05:19:49.416Z,35.78
2023-01-23T05:20:52.255Z,35.10
2023-01-23T05:21:54.528Z,37.17
2023-01-23T05:22:58.602Z,45.67
2023-01-23T05:24:15.171Z,38.08
2023-01-23T05:25:23.708Z,38.85
2023-01-23T05:26:27.068Z,40.95
2023-01-23T05:27:30.949Z,35.95
2023-01-23T05:28:34.654Z,35.72
2023-01-23T05:29:36.925Z,36.83
2023-01-23T05:30:47.726Z,39.50
2023-01-23T05:31:56.525Z,38.30
2023-01-23T05:33:13.638Z,32.58
2023-01-23T05:34:16.298Z,34.30
2023-01-23T05:35:19.600Z,35.22
2023-01-23T05:36:22.464Z,39.70
2023-01-23T05:37:25.900Z,36.90
2023-01-23T05:38:31.845Z,32.83
2023-01-23T05:39:34.842Z,41.30
2023-01-23T05:40:38.537Z,35.38
2023-01-23T05:41:49.810Z,53.58
2023-01-23T05:43:30.707Z,39.55
2023-01-23T05:44:35.801Z,40.63
2023-01-23T05:45:42.063Z,38.03
2023-01-23T05:46:51.382Z,44.70
2023-01-23T05:47:55.868Z,33.00
2023-01-23T05:48:58.295Z,34.13
2023-01-23T05:50:01.398Z,42.83
2023-01-23T05:51:08.566Z,41.78
2023-01-23T05:52:10.941Z,43.13
2023-01-23T05:53:13.360Z,46.78
2023-01-23T05:54:16.688Z,48.35
2023-01-23T05:55:20.999Z,40.55
2023-01-23T05:56:25.227Z,44.55
2023-01-23T05:57:46.366Z,45.33
2023-01-23T05:59:14.908Z,51.35
2023-01-23T06:00:23.060Z,39.05
2023-01-23T06:01:54.192Z,43.78
2023-01-23T06:03:14.924Z,47.65
2023-01-23T06:04:26.109Z,52.22
2023-01-23T06:05:41.253Z,41.10
2023-01-23T06:06:49.492Z,49.42
2023-01-23T06:07:51.795Z,39.45
2023-01-23T06:08:54.166Z,37.00
2023-01-23T06:09:56.510Z,41.55
2023-01-23T06:10:59.726Z,41.60
2023-01-23T06:12:02.149Z,50.30
2023-01-23T06:13:04.791Z,47.63
2023-01-23T06:14:07.108Z,43.05
2023-01-23T06:15:10.012Z,46.80
2023-01-23T06:16:13.406Z,40.92
2023-01-23T06:17:16.145Z,43.70
2023-01-23T06:18:19.224Z,36.65
2023-01-23T06:19:21.904Z,45.90
2023-01-23T06:20:24.757Z,42.42
2023-01-23T06:21:27.071Z,42.08
2023-01-23T06:22:31.439Z,50.30
2023-01-23T06:23:41.434Z,48.80
2023-01-23T06:24:45.061Z,41.85
2023-01-23T06:25:47.422Z,40.10
2023-01-23T06:26:50.633Z,38.40
2023-01-23T06:27:54.975Z,51.10
2023-01-23T06:28:58.955Z,45.70
2023-01-23T06:30:01.356Z,44.28
2023-01-23T06:31:04.619Z,47.60
2023-01-23T06:32:14.763Z,48.42
2023-01-23T06:33:17.662Z,50.05
2023-01-23T06:34:21.036Z,44.28
2023-01-23T06:35:31.559Z,43.42
2023-01-23T06:36:34.538Z,40.83
2023-01-23T06:37:36.960Z,44.47
2023-01-23T06:38:39.956Z,49.45
2023-01-23T06:39:45.629Z,45.80
2023-01-23T06:40:49.802Z,41.50
2023-01-23T06:42:18.065Z,40.65
2023-01-23T06:43:25.003Z,38.85
2023-01-23T06:44:27.386Z,51.13
2023-01-23T06:45:30.647Z,49.70
2023-01-23T06:46:33.961Z,50.67
2023-01-23T06:47:36.985Z,48.40
2023-01-23T06:48:39.330Z,49.75
2023-01-23T06:49:41.896Z,47.08
2023-01-23T06:50:44.928Z,65.50
2023-01-23T06:51:48.343Z,71.63
2023-01-23T06:52:50.825Z,84.20
2023-01-23T06:53:53.685Z,78.43
2023-01-23T06:54:57.443Z,54.88
2023-01-23T06:56:05.474Z,44.35
2023-01-23T06:57:09.958Z,49.90
2023-01-23T06:58:12.310Z,47.40
2023-01-23T06:59:15.513Z,49.15
2023-01-23T07:00:18.586Z,44.00
2023-01-23T07:01:21.621Z,41.38
2023-01-23T07:02:45.295Z,41.28
2023-01-23T07:03:47.981Z,45.63
2023-01-23T07:04:50.356Z,39.45
2023-01-23T07:05:52.651Z,43.88
2023-01-23T07:06:55.005Z,45.60
2023-01-23T07:07:57.346Z,43.20
2023-01-23T07:08:59.626Z,42.92
2023-01-23T07:10:01.895Z,48.10
2023-01-23T07:11:05.225Z,48.65
2023-01-23T07:12:08.003Z,50.75
2023-01-23T07:13:11.628Z,40.65
2023-01-23T07:14:13.905Z,39.03
2023-01-23T07:15:17.661Z,44.78
2023-01-23T07:16:20.092Z,41.17
2023-01-23T07:17:22.504Z,38.47
2023-01-23T07:18:28.312Z,45.90
2023-01-23T07:19:30.704Z,51.83
2023-01-23T07:20:34.633Z,47.60
2023-01-23T07:21:37.738Z,44.22
2023-01-23T07:22:40.464Z,44.15
2023-01-23T07:23:42.724Z,37.88
2023-01-23T07:24:45.059Z,42.40
2023-01-23T07:25:47.693Z,42.72
2023-01-23T07:26:49.915Z,41.35
2023-01-23T07:27:52.151Z,46.20
2023-01-23T07:28:54.420Z,41.65
2023-01-23T07:29:56.659Z,45.33
2023-01-23T07:30:59.812Z,43.05
2023-01-23T07:32:02.407Z,43.95
2023-01-23T07:33:04.980Z,45.55
2023-01-23T07:34:07.241Z,44.55
2023-01-23T07:35:09.716Z,41.45
2023-01-23T07:36:14.774Z,41.00
2023-01-23T07:37:17.059Z,47.22
2023-01-23T07:38:19.456Z,43.30
2023-01-23T07:39:21.717Z,40.42
2023-01-23T07:40:24.370Z,38.58
2023-01-23T07:41:26.662Z,46.55
2023-01-23T07:42:28.941Z,47.47
2023-01-23T07:43:31.222Z,38.17
2023-01-23T07:44:33.471Z,38.65
2023-01-23T07:45:36.022Z,43.85
2023-01-23T07:46:38.319Z,37.42
2023-01-23T07:47:40.732Z,36.63
2023-01-23T07:48:42.999Z,42.33
2023-01-23T07:49:46.196Z,39.55
2023-01-23T07:50:48.452Z,36.25
2023-01-23T07:51:50.740Z,44.40
2023-01-23T07:52:54.185Z,37.88
2023-01-23T07:53:57.239Z,34.97
2023-01-23T07:54:59.749Z,37.28
2023-01-23T07:56:06.182Z,39.65
2023-01-23T07:57:08.551Z,37.42
2023-01-23T07:58:10.950Z,36.08
2023-01-23T07:59:13.748Z,39.20
2023-01-23T08:00:16.649Z,37.95
2023-01-23T08:01:21.599Z,41.72
2023-01-23T08:02:24.051Z,35.92
2023-01-23T08:03:29.100Z,41.45
2023-01-23T08:04:31.569Z,36.33
2023-01-23T08:05:33.935Z,38.05
2023-01-23T08:06:36.619Z,34.13
2023-01-23T08:07:38.956Z,40.60
2023-01-23T08:08:41.433Z,34.70
2023-01-23T08:09:43.811Z,41.75
2023-01-23T08:10:46.204Z,34.92
2023-01-23T08:11:52.462Z,30.95
2023-01-23T08:12:54.773Z,41.38
2023-01-23T08:13:57.062Z,33.08
2023-01-23T08:14:59.462Z,34.38
2023-01-23T08:16:01.844Z,34.97
2023-01-23T08:17:04.109Z,30.35
2023-01-23T08:18:06.497Z,32.17
2023-01-23T08:19:09.096Z,30.65
2023-01-23T08:20:11.719Z,33.95
2023-01-23T08:21:14.034Z,29.63
2023-01-23T08:22:16.382Z,33.38
2023-01-23T08:23:18.658Z,30.90
2023-01-23T08:24:21.280Z,32.85
2023-01-23T08:25:23.751Z,34.58
2023-01-23T08:26:26.036Z,30.45
2023-01-23T08:27:28.285Z,31.83
2023-01-23T08:28:30.967Z,31.33
2023-01-23T08:29:33.373Z,30.77
2023-01-23T08:30:35.652Z,29.95
2023-01-23T08:31:38.499Z,35.25
2023-01-23T08:32:40.990Z,29.92
2023-01-23T08:33:43.302Z,32.10
2023-01-23T08:34:46.274Z,29.90
2023-01-23T08:35:53.980Z,29.92
2023-01-23T08:36:56.269Z,37.00
2023-01-23T08:37:58.537Z,32.47
2023-01-23T08:39:00.887Z,29.65
2023-01-23T08:40:04.223Z,32.35
2023-01-23T08:41:06.887Z,31.48
2023-01-23T08:42:09.231Z,31.73
2023-01-23T08:43:13.955Z,28.35
2023-01-23T08:44:16.323Z,27.08
2023-01-23T08:45:18.567Z,31.95
2023-01-23T08:46:20.961Z,29.98
2023-01-23T08:47:23.819Z,32.30
2023-01-23T08:48:27.276Z,31.80
2023-01-23T08:49:29.580Z,34.05
2023-01-23T08:50:31.862Z,30.02
2023-01-23T08:51:34.193Z,29.88
2023-01-23T08:52:36.506Z,34.45
2023-01-23T08:53:39.399Z,35.25
2023-01-23T08:54:41.670Z,32.05
2023-01-23T08:55:44.199Z,33.38
2023-01-23T08:56:46.462Z,30.48
2023-01-23T08:57:48.815Z,32.65
2023-01-23T08:58:51.684Z,38.15
2023-01-23T08:59:53.947Z,31.08
2023-01-23T09:00:56.511Z,37.08
2023-01-23T09:01:59.204Z,31.58
2023-01-23T09:03:02.880Z,29.85
2023-01-23T09:04:05.485Z,32.13
2023-01-23T09:05:08.394Z,28.23
2023-01-23T09:06:12.256Z,28.67
2023-01-23T09:07:14.557Z,36.72
2023-01-23T09:08:16.953Z,29.45
2023-01-23T09:09:19.984Z,27.65
2023-01-23T09:10:23.033Z,26.55
2023-01-23T09:11:25.392Z,31.45
2023-01-23T09:12:27.813Z,30.60
2023-01-23T09:13:30.387Z,36.78
2023-01-23T09:14:32.726Z,31.73
2023-01-23T09:15:37.439Z,28.95
2023-01-23T09:16:40.938Z,35.10
2023-01-23T09:17:43.346Z,33.15
2023-01-23T09:18:45.674Z,29.45
2023-01-23T09:19:47.941Z,31.02
2023-01-23T09:20:50.363Z,33.25
2023-01-23T09:21:57.048Z,29.67
2023-01-23T09:22:59.382Z,32.63
2023-01-23T09:24:01.765Z,28.73
2023-01-23T09:25:04.590Z,28.38
2023-01-23T09:26:12.529Z,34.38
2023-01-23T09:27:14.832Z,31.08
2023-01-23T09:28:17.119Z,32.15
2023-01-23T09:29:19.412Z,31.67
2023-01-23T09:30:22.402Z,28.38
2023-01-23T09:31:25.155Z,32.53
2023-01-23T09:32:27.488Z,32.65
2023-01-23T09:33:29.746Z,31.50
2023-01-23T09:34:32.091Z,31.40
2023-01-23T09:35:34.958Z,29.95
2023-01-23T09:36:43.384Z,30.83
2023-01-23T09:38:01.270Z,27.33
2023-01-23T09:39:03.910Z,27.40
2023-01-23T09:40:08.784Z,32.88
2023-01-23T09:41:24.559Z,30.23
2023-01-23T09:42:33.976Z,30.75
2023-01-23T09:44:05.328Z,32.58
2023-01-23T09:45:12.116Z,26.88
2023-01-23T09:46:41.387Z,32.30
2023-01-23T09:47:53.344Z,34.22
2023-01-23T09:49:19.566Z,29.83
2023-01-23T09:50:28.588Z,27.20
2023-01-23T09:51:39.367Z,28.92
2023-01-23T09:52:47.650Z,26.80
2023-01-23T09:53:50.088Z,31.75
2023-01-23T09:55:01.802Z,27.70
2023-01-23T09:56:20.652Z,29.30
2023-01-23T09:57:36.764Z,27.83
2023-01-23T09:59:08.675Z,28.52
2023-01-23T10:00:27.722Z,33.03
2023-01-23T10:01:31.818Z,28.73
2023-01-23T10:02:34.343Z,29.58
2023-01-23T10:03:37.646Z,30.60
2023-01-23T10:04:40.066Z,30.63
2023-01-23T10:05:50.942Z,26.83
2023-01-23T10:07:19.507Z,23.33
2023-01-23T10:09:32.559Z,31.48
2023-01-23T10:10:38.312Z,28.88
2023-01-23T10:11:55.050Z,31.33
2023-01-23T10:13:10.715Z,31.35
2023-01-23T10:14:26.600Z,30.85
2023-01-23T10:15:41.071Z,30.08
2023-01-23T10:17:22.475Z,28.98
2023-01-23T10:18:31.216Z,27.67
2023-01-23T10:19:43.001Z,28.67
2023-01-23T10:21:12.927Z,32.17
2023-01-23T10:22:37.122Z,28.42
2023-01-23T10:23:54.497Z,29.23
2023-01-23T10:24:58.286Z,27.73
2023-01-23T10:26:03.704Z,30.95
2023-01-23T10:27:31.340Z,30.13
2023-01-23T10:28:39.228Z,28.38
2023-01-23T10:29:47.448Z,30.00
2023-01-23T10:30:58.330Z,31.02
2023-01-23T10:32:02.442Z,28.80
2023-01-23T10:33:14.725Z,26.73
2023-01-23T10:34:35.489Z,26.63
2023-01-23T10:35:51.777Z,29.48
2023-01-23T10:37:19.920Z,28.50
2023-01-23T10:38:47.867Z,27.35
2023-01-23T10:40:39.698Z,30.02
2023-01-23T10:41:44.446Z,31.48
2023-01-23T10:42:48.594Z,25.90
2023-01-23T10:43:53.624Z,30.88
2023-01-23T10:44:55.936Z,25.63
2023-01-23T10:45:58.261Z,29.65
2023-01-23T10:47:04.258Z,31.95
2023-01-23T10:48:29.466Z,27.08
2023-01-23T10:49:41.318Z,31.00
2023-01-23T10:50:43.616Z,35.95
2023-01-23T10:51:47.813Z,32.83
2023-01-23T10:52:50.255Z,27.80
2023-01-23T10:54:08.427Z,35.70
2023-01-23T10:55:20.327Z,35.92
2023-01-23T10:56:23.010Z,29.08
2023-01-23T10:57:28.404Z,31.00
2023-01-23T10:58:38.472Z,29.40
2023-01-23T10:59:56.752Z,26.73
2023-01-23T11:00:59.537Z,27.05
2023-01-23T11:02:13.824Z,26.83
2023-01-23T11:03:22.094Z,25.90
2023-01-23T11:04:26.907Z,32.08
2023-01-23T11:05:51.162Z,32.38
2023-01-23T11:07:16.332Z,27.50
2023-01-23T11:08:34.105Z,26.95
2023-01-23T11:09:52.367Z,31.58
2023-01-23T11:11:14.839Z,30.38
2023-01-23T11:12:29.891Z,27.65
2023-01-23T11:13:32.166Z,27.42
2023-01-23T11:14:34.477Z,36.70
2023-01-23T11:15:42.125Z,33.67
2023-01-23T11:16:44.709Z,33.17
2023-01-23T11:17:47.237Z,28.45
2023-01-23T11:19:05.579Z,28.63
2023-01-23T11:20:23.406Z,30.98
2023-01-23T11:21:32.657Z,30.15
2023-01-23T11:22:40.946Z,32.55
2023-01-23T11:23:43.444Z,33.58
2023-01-23T11:24:45.748Z,32.35
2023-01-23T11:25:50.127Z,30.85
2023-01-23T11:27:06.649Z,32.72
2023-01-23T11:28:27.229Z,31.88
2023-01-23T11:29:42.592Z,31.25
2023-01-23T11:30:51.341Z,26.23
2023-01-23T11:32:04.389Z,28.80
2023-01-23T11:33:32.887Z,29.23
2023-01-23T11:34:41.380Z,31.30
2023-01-23T11:35:53.563Z,32.30
2023-01-23T11:37:14.910Z,28.67
2023-01-23T11:38:30.305Z,36.50
2023-01-23T11:39:53.606Z,30.70
2023-01-23T11:40:56.269Z,27.98
2023-01-23T11:41:58.673Z,26.40
2023-01-23T11:43:01.007Z,28.17
2023-01-23T11:44:18.397Z,26.95
2023-01-23T11:45:57.751Z,26.27
2023-01-23T11:47:33.437Z,29.40
2023-01-23T11:48:44.966Z,29.13
2023-01-23T11:49:58.492Z,29.92
2023-01-23T11:51:16.179Z,26.38
2023-01-23T11:52:21.163Z,28.00
2023-01-23T11:53:43.667Z,29.05
2023-01-23T11:55:15.483Z,27.75
2023-01-23T11:56:43.330Z,25.10
2023-01-23T11:58:04.261Z,22.05
2023-01-23T11:59:20.335Z,23.77
2023-01-23T12:00:32.477Z,28.80
2023-01-23T12:02:03.825Z,26.45
2023-01-23T12:03:15.246Z,25.90
2023-01-23T12:04:20.229Z,29.08
2023-01-23T12:05:42.781Z,30.58
2023-01-23T12:06:55.785Z,24.73
2023-01-23T12:08:18.212Z,27.88
2023-01-23T12:09:22.098Z,29.35
2023-01-23T12:10:45.980Z,23.90
2023-01-23T12:12:13.711Z,26.40
2023-01-23T12:13:29.838Z,25.52
2023-01-23T12:14:53.180Z,26.73
2023-01-23T12:15:55.429Z,22.50
2023-01-23T12:17:21.576Z,24.90
2023-01-23T12:19:08.264Z,25.55
2023-01-23T12:20:27.692Z,24.48
2023-01-23T12:22:03.618Z,19.27
2023-01-23T12:23:27.358Z,22.65
2023-01-23T12:25:02.012Z,21.67
2023-01-23T12:26:19.375Z,23.38
2023-01-23T12:27:43.853Z,23.83
2023-01-23T12:29:18.650Z,22.77
2023-01-23T12:30:46.400Z,24.70
2023-01-23T12:32:01.970Z,28.58
2023-01-23T12:33:24.808Z,25.15
2023-01-23T12:35:03.218Z,32.03
2023-01-23T12:36:30.811Z,29.15
2023-01-23T12:38:03.173Z,31.77
2023-01-23T12:39:33.921Z,23.92
2023-01-23T12:40:45.006Z,24.70
2023-01-23T12:41:52.230Z,25.15
2023-01-23T12:42:59.726Z,30.42
2023-01-23T12:44:06.053Z,34.33
2023-01-23T12:45:11.250Z,28.80
2023-01-23T12:46:23.772Z,25.45
2023-01-23T12:47:33.287Z,29.27
2023-01-23T12:48:50.080Z,32.08
2023-01-23T12:49:59.970Z,29.20
2023-01-23T12:51:18.899Z,28.52
2023-01-23T12:52:33.192Z,24.45
2023-01-23T12:53:37.558Z,33.33
2023-01-23T12:54:48.493Z,27.00
2023-01-23T12:56:02.839Z,25.70
2023-01-23T12:57:07.763Z,25.42
2023-01-23T12:58:16.566Z,27.60
2023-01-23T12:59:37.119Z,27.85
2023-01-23T13:00:51.776Z,27.08
2023-01-23T13:02:37.578Z,25.10
2023-01-23T13:03:48.738Z,27.70
2023-01-23T13:05:06.150Z,28.45
2023-01-23T13:06:27.098Z,26.52
2023-01-23T13:07:42.550Z,29.55
2023-01-23T13:09:26.060Z,26.45
2023-01-23T13:11:05.119Z,31.25
2023-01-23T13:12:25.272Z,23.02
2023-01-23T13:13:27.999Z,28.55
2023-01-23T13:14:34.711Z,29.38
2023-01-23T13:15:42.100Z,31.85
2023-01-23T13:16:49.352Z,28.08
2023-01-23T13:18:00.117Z,27.83
2023-01-23T13:19:35.759Z,27.75
2023-01-23T13:21:14.691Z,29.45
2023-01-23T13:22:31.275Z,27.67
2023-01-23T13:23:36.741Z,24.83
2023-01-23T13:25:07.393Z,27.80
2023-01-23T13:26:15.774Z,27.00
2023-01-23T13:27:41.216Z,26.67
2023-01-23T13:28:53.842Z,29.73
2023-01-23T13:29:58.775Z,28.38
2023-01-23T13:31:05.488Z,27.30
2023-01-23T13:32:34.232Z,24.58
2023-01-23T13:33:51.284Z,29.92
2023-01-23T13:34:53.763Z,24.77
2023-01-23T13:35:58.679Z,29.17
2023-01-23T13:37:51.087Z,28.67
2023-01-23T13:39:18.381Z,26.00
2023-01-23T13:40:23.892Z,23.35
2023-01-23T13:41:29.809Z,27.10
2023-01-23T13:42:36.008Z,27.75
2023-01-23T13:44:04.094Z,26.67
2023-01-23T13:45:15.325Z,29.02
2023-01-23T13:46:36.438Z,28.17
2023-01-23T14:21:41.911Z,22.58
2023-01-23T14:22:44.685Z,23.33
2023-01-23T14:23:53.510Z,23.45
2023-01-23T14:24:56.556Z,23.27
2023-01-23T14:25:59.231Z,29.27
2023-01-23T14:27:09.502Z,23.85
2023-01-23T14:28:17.596Z,30.10
2023-01-23T14:29:23.844Z,25.20
2023-01-23T14:30:30.423Z,25.27
2023-01-23T14:31:34.873Z,26.83
2023-01-23T14:32:38.470Z,22.52
2023-01-23T14:33:45.390Z,23.08
2023-01-23T14:34:47.701Z,27.58
2023-01-23T14:35:51.637Z,25.23
2023-01-23T14:37:04.501Z,30.35
2023-01-23T14:38:08.224Z,23.38
2023-01-23T14:39:27.596Z,25.40
2023-01-23T14:40:37.621Z,24.85
2023-01-23T14:41:47.610Z,24.20
2023-01-23T14:42:58.855Z,25.35
2023-01-23T14:44:03.941Z,22.88
2023-01-23T14:45:09.989Z,23.30
2023-01-23T14:46:21.578Z,21.40
2023-01-23T14:47:42.544Z,25.17
2023-01-23T14:48:52.202Z,22.80
2023-01-23T14:49:55.837Z,24.10
2023-01-23T14:51:27.931Z,26.45
2023-01-23T14:52:31.203Z,23.73
2023-01-23T14:53:33.598Z,26.83
2023-01-23T14:54:37.878Z,22.10
2023-01-23T14:55:42.522Z,22.05
2023-01-23T14:56:47.141Z,24.40
2023-01-23T14:57:54.889Z,24.33
2023-01-23T14:58:59.546Z,21.13
2023-01-23T15:00:02.409Z,21.95
2023-01-23T15:01:05.070Z,21.00
2023-01-23T15:02:31.488Z,24.15
2023-01-23T15:03:45.417Z,23.30
2023-01-23T15:05:12.702Z,24.45
2023-01-23T15:06:20.670Z,21.10